sensor_id;sensor_type;location;lat;lon;timestamp;P1;durP1;ratioP1;P2;durP2;ratioP2
9150;SDS011;4610;50.006;7.490;2022-09-09T00:00:49;5.17;;;1.53;;
9150;SDS011;4610;50.006;7.490;2022-09-09T00:03:23;2.57;;;1.17;;
9150;SDS011;4610;50.006;7.490;2022-09-09T00:05:54;4.80;;;1.30;;
9150;SDS011;4610;50.006;7.490;2022-09-09T00:08:28;2.27;;;1.40;;
9150;SDS011;4610;50.006;7.490;2022-09-09T00:11:04;3.27;;;1.37;;
9150;SDS011;4610;50.006;7.490;2022-09-09T00:13:34;3.17;;;1.57;;
9150;SDS011;4610;50.006;7.490;2022-09-09T00:16:07;4.07;;;1.40;;
9150;SDS011;4610;50.006;7.490;2022-09-09T00:18:47;2.93;;;1.37;;
9150;SDS011;4610;50.006;7.490;2022-09-09T00:21:22;2.87;;;1.40;;
9150;SDS011;4610;50.006;7.490;2022-09-09T00:23:57;4.93;;;1.43;;
9150;SDS011;4610;50.006;7.490;2022-09-09T00:26:27;3.60;;;1.60;;
9150;SDS011;4610;50.006;7.490;2022-09-09T00:29:03;4.33;;;1.40;;
9150;SDS011;4610;50.006;7.490;2022-09-09T00:31:35;6.20;;;1.60;;
9150;SDS011;4610;50.006;7.490;2022-09-09T00:34:03;2.77;;;1.60;;
9150;SDS011;4610;50.006;7.490;2022-09-09T00:36:36;7.07;;;1.70;;
9150;SDS011;4610;50.006;7.490;2022-09-09T00:39:03;1.73;;;1.30;;
9150;SDS011;4610;50.006;7.490;2022-09-09T00:41:35;2.87;;;1.47;;
9150;SDS011;4610;50.006;7.490;2022-09-09T00:44:16;3.07;;;1.50;;
9150;SDS011;4610;50.006;7.490;2022-09-09T00:46:56;4.47;;;1.40;;
9150;SDS011;4610;50.006;7.490;2022-09-09T00:49:34;4.03;;;1.57;;
9150;SDS011;4610;50.006;7.490;2022-09-09T00:52:14;2.87;;;1.30;;
9150;SDS011;4610;50.006;7.490;2022-09-09T00:54:51;1.97;;;1.40;;
9150;SDS011;4610;50.006;7.490;2022-09-09T00:57:27;6.23;;;1.40;;
9150;SDS011;4610;50.006;7.490;2022-09-09T00:59:58;3.43;;;1.40;;
9150;SDS011;4610;50.006;7.490;2022-09-09T01:02:43;3.93;;;1.43;;
9150;SDS011;4610;50.006;7.490;2022-09-09T01:05:19;5.63;;;1.43;;
9150;SDS011;4610;50.006;7.490;2022-09-09T01:07:53;3.10;;;1.60;;
9150;SDS011;4610;50.006;7.490;2022-09-09T01:10:21;6.37;;;2.00;;
9150;SDS011;4610;50.006;7.490;2022-09-09T01:12:55;4.30;;;1.50;;
9150;SDS011;4610;50.006;7.490;2022-09-09T01:15:28;3.63;;;1.50;;
9150;SDS011;4610;50.006;7.490;2022-09-09T01:17:59;5.33;;;1.53;;
9150;SDS011;4610;50.006;7.490;2022-09-09T01:20:31;4.13;;;1.60;;
9150;SDS011;4610;50.006;7.490;2022-09-09T01:23:10;4.57;;;2.03;;
9150;SDS011;4610;50.006;7.490;2022-09-09T01:26:11;2.20;;;1.30;;
9150;SDS011;4610;50.006;7.490;2022-09-09T01:28:43;6.10;;;1.97;;
9150;SDS011;4610;50.006;7.490;2022-09-09T01:31:12;5.40;;;1.63;;
9150;SDS011;4610;50.006;7.490;2022-09-09T01:33:43;4.63;;;1.77;;
9150;SDS011;4610;50.006;7.490;2022-09-09T01:36:10;2.90;;;1.50;;
9150;SDS011;4610;50.006;7.490;2022-09-09T01:38:41;5.60;;;1.47;;
9150;SDS011;4610;50.006;7.490;2022-09-09T01:41:07;2.47;;;1.30;;
9150;SDS011;4610;50.006;7.490;2022-09-09T01:43:35;6.53;;;1.60;;
9150;SDS011;4610;50.006;7.490;2022-09-09T01:46:03;3.97;;;1.30;;
9150;SDS011;4610;50.006;7.490;2022-09-09T01:48:30;2.20;;;1.30;;
9150;SDS011;4610;50.006;7.490;2022-09-09T01:50:57;3.17;;;1.37;;
9150;SDS011;4610;50.006;7.490;2022-09-09T01:53:24;4.53;;;1.83;;
9150;SDS011;4610;50.006;7.490;2022-09-09T01:55:54;7.60;;;2.87;;
9150;SDS011;4610;50.006;7.490;2022-09-09T01:58:29;3.47;;;1.90;;
9150;SDS011;4610;50.006;7.490;2022-09-09T02:01:06;1.57;;;1.30;;
9150;SDS011;4610;50.006;7.490;2022-09-09T02:03:38;5.30;;;2.07;;
9150;SDS011;4610;50.006;7.490;2022-09-09T02:06:13;3.67;;;1.60;;
9150;SDS011;4610;50.006;7.490;2022-09-09T02:08:48;8.13;;;1.70;;
9150;SDS011;4610;50.006;7.490;2022-09-09T02:11:16;3.07;;;1.60;;
9150;SDS011;4610;50.006;7.490;2022-09-09T02:13:45;4.37;;;1.50;;
9150;SDS011;4610;50.006;7.490;2022-09-09T02:16:16;2.17;;;1.53;;
9150;SDS011;4610;50.006;7.490;2022-09-09T02:18:48;4.27;;;1.60;;
9150;SDS011;4610;50.006;7.490;2022-09-09T02:21:17;9.63;;;1.50;;
9150;SDS011;4610;50.006;7.490;2022-09-09T02:23:44;6.47;;;1.60;;
9150;SDS011;4610;50.006;7.490;2022-09-09T02:26:17;2.00;;;1.50;;
9150;SDS011;4610;50.006;7.490;2022-09-09T02:28:46;2.20;;;1.53;;
9150;SDS011;4610;50.006;7.490;2022-09-09T02:31:17;4.00;;;1.70;;
9150;SDS011;4610;50.006;7.490;2022-09-09T02:33:47;3.30;;;1.57;;
9150;SDS011;4610;50.006;7.490;2022-09-09T02:36:19;5.00;;;1.90;;
9150;SDS011;4610;50.006;7.490;2022-09-09T02:38:49;3.47;;;1.90;;
9150;SDS011;4610;50.006;7.490;2022-09-09T02:41:19;4.63;;;1.60;;
9150;SDS011;4610;50.006;7.490;2022-09-09T02:43:48;6.53;;;1.40;;
9150;SDS011;4610;50.006;7.490;2022-09-09T02:46:22;3.30;;;1.57;;
9150;SDS011;4610;50.006;7.490;2022-09-09T02:48:58;6.07;;;2.40;;
9150;SDS011;4610;50.006;7.490;2022-09-09T02:51:28;2.30;;;1.80;;
9150;SDS011;4610;50.006;7.490;2022-09-09T02:54:08;2.73;;;1.60;;
9150;SDS011;4610;50.006;7.490;2022-09-09T02:56:42;4.87;;;1.90;;
9150;SDS011;4610;50.006;7.490;2022-09-09T02:59:14;2.63;;;1.40;;
9150;SDS011;4610;50.006;7.490;2022-09-09T03:01:43;3.80;;;1.40;;
9150;SDS011;4610;50.006;7.490;2022-09-09T03:04:10;4.00;;;1.67;;
9150;SDS011;4610;50.006;7.490;2022-09-09T03:06:36;4.40;;;1.90;;
9150;SDS011;4610;50.006;7.490;2022-09-09T03:09:03;4.43;;;1.33;;
9150;SDS011;4610;50.006;7.490;2022-09-09T03:11:30;6.33;;;1.67;;
9150;SDS011;4610;50.006;7.490;2022-09-09T03:13:57;7.67;;;2.07;;
9150;SDS011;4610;50.006;7.490;2022-09-09T03:16:24;2.90;;;1.90;;
9150;SDS011;4610;50.006;7.490;2022-09-09T03:18:52;3.53;;;1.80;;
9150;SDS011;4610;50.006;7.490;2022-09-09T03:21:19;4.17;;;1.53;;
9150;SDS011;4610;50.006;7.490;2022-09-09T03:23:46;2.20;;;1.70;;
9150;SDS011;4610;50.006;7.490;2022-09-09T03:26:13;3.47;;;1.70;;
9150;SDS011;4610;50.006;7.490;2022-09-09T03:28:40;3.33;;;1.43;;
9150;SDS011;4610;50.006;7.490;2022-09-09T03:31:07;4.00;;;1.40;;
9150;SDS011;4610;50.006;7.490;2022-09-09T03:33:35;7.07;;;2.10;;
9150;SDS011;4610;50.006;7.490;2022-09-09T03:36:03;6.43;;;1.73;;
9150;SDS011;4610;50.006;7.490;2022-09-09T03:38:30;2.93;;;1.70;;
9150;SDS011;4610;50.006;7.490;2022-09-09T03:40:59;5.27;;;1.67;;
9150;SDS011;4610;50.006;7.490;2022-09-09T03:43:26;6.90;;;1.90;;
9150;SDS011;4610;50.006;7.490;2022-09-09T03:45:54;4.80;;;1.73;;
9150;SDS011;4610;50.006;7.490;2022-09-09T03:48:22;5.97;;;1.70;;
9150;SDS011;4610;50.006;7.490;2022-09-09T03:50:50;2.00;;;1.50;;
9150;SDS011;4610;50.006;7.490;2022-09-09T03:53:20;1.87;;;1.60;;
9150;SDS011;4610;50.006;7.490;2022-09-09T03:55:50;3.93;;;1.70;;
9150;SDS011;4610;50.006;7.490;2022-09-09T03:58:20;4.47;;;1.60;;
9150;SDS011;4610;50.006;7.490;2022-09-09T04:00:58;5.13;;;1.50;;
9150;SDS011;4610;50.006;7.490;2022-09-09T04:03:27;5.87;;;2.00;;
9150;SDS011;4610;50.006;7.490;2022-09-09T04:05:54;5.57;;;2.07;;
9150;SDS011;4610;50.006;7.490;2022-09-09T04:08:24;7.63;;;2.17;;
9150;SDS011;4610;50.006;7.490;2022-09-09T04:10:52;3.87;;;1.80;;
9150;SDS011;4610;50.006;7.490;2022-09-09T04:13:22;3.57;;;1.80;;
9150;SDS011;4610;50.006;7.490;2022-09-09T04:15:50;5.50;;;1.83;;
9150;SDS011;4610;50.006;7.490;2022-09-09T04:18:17;4.50;;;1.43;;
9150;SDS011;4610;50.006;7.490;2022-09-09T04:20:45;2.40;;;1.60;;
9150;SDS011;4610;50.006;7.490;2022-09-09T04:23:12;3.00;;;1.67;;
9150;SDS011;4610;50.006;7.490;2022-09-09T04:25:43;3.23;;;1.53;;
9150;SDS011;4610;50.006;7.490;2022-09-09T04:28:11;5.63;;;1.90;;
9150;SDS011;4610;50.006;7.490;2022-09-09T04:30:38;5.57;;;2.07;;
9150;SDS011;4610;50.006;7.490;2022-09-09T04:33:05;5.47;;;1.80;;
9150;SDS011;4610;50.006;7.490;2022-09-09T04:35:33;3.97;;;1.70;;
9150;SDS011;4610;50.006;7.490;2022-09-09T04:38:00;4.17;;;1.60;;
9150;SDS011;4610;50.006;7.490;2022-09-09T04:40:27;4.07;;;1.43;;
9150;SDS011;4610;50.006;7.490;2022-09-09T04:42:57;1.30;;;1.20;;
9150;SDS011;4610;50.006;7.490;2022-09-09T04:45:24;2.93;;;1.50;;
9150;SDS011;4610;50.006;7.490;2022-09-09T04:47:51;5.60;;;1.83;;
9150;SDS011;4610;50.006;7.490;2022-09-09T04:50:17;6.20;;;3.40;;
9150;SDS011;4610;50.006;7.490;2022-09-09T04:52:44;4.10;;;1.70;;
9150;SDS011;4610;50.006;7.490;2022-09-09T04:55:11;6.63;;;1.80;;
9150;SDS011;4610;50.006;7.490;2022-09-09T04:57:38;4.30;;;1.70;;
9150;SDS011;4610;50.006;7.490;2022-09-09T05:00:07;4.53;;;1.70;;
9150;SDS011;4610;50.006;7.490;2022-09-09T05:02:36;3.20;;;1.60;;
9150;SDS011;4610;50.006;7.490;2022-09-09T05:05:03;3.70;;;2.00;;
9150;SDS011;4610;50.006;7.490;2022-09-09T05:07:30;5.50;;;1.80;;
9150;SDS011;4610;50.006;7.490;2022-09-09T05:09:57;3.87;;;1.90;;
9150;SDS011;4610;50.006;7.490;2022-09-09T05:12:24;3.60;;;1.70;;
9150;SDS011;4610;50.006;7.490;2022-09-09T05:14:51;3.83;;;1.80;;
9150;SDS011;4610;50.006;7.490;2022-09-09T05:17:19;9.73;;;1.87;;
9150;SDS011;4610;50.006;7.490;2022-09-09T05:19:46;2.30;;;1.60;;
9150;SDS011;4610;50.006;7.490;2022-09-09T05:22:17;5.23;;;2.20;;
9150;SDS011;4610;50.006;7.490;2022-09-09T05:24:46;4.93;;;2.43;;
9150;SDS011;4610;50.006;7.490;2022-09-09T05:27:15;5.97;;;2.20;;
9150;SDS011;4610;50.006;7.490;2022-09-09T05:29:44;4.30;;;1.73;;
9150;SDS011;4610;50.006;7.490;2022-09-09T05:32:11;5.77;;;1.80;;
9150;SDS011;4610;50.006;7.490;2022-09-09T05:34:40;3.37;;;1.87;;
9150;SDS011;4610;50.006;7.490;2022-09-09T05:37:06;4.57;;;1.93;;
9150;SDS011;4610;50.006;7.490;2022-09-09T05:39:33;8.40;;;2.23;;
9150;SDS011;4610;50.006;7.490;2022-09-09T05:42:02;3.67;;;2.00;;
9150;SDS011;4610;50.006;7.490;2022-09-09T05:44:29;4.83;;;1.73;;
9150;SDS011;4610;50.006;7.490;2022-09-09T05:46:56;4.57;;;1.70;;
9150;SDS011;4610;50.006;7.490;2022-09-09T05:49:23;5.47;;;1.80;;
9150;SDS011;4610;50.006;7.490;2022-09-09T05:51:51;3.17;;;1.83;;
9150;SDS011;4610;50.006;7.490;2022-09-09T05:54:18;7.70;;;1.83;;
9150;SDS011;4610;50.006;7.490;2022-09-09T05:56:45;4.40;;;1.50;;
9150;SDS011;4610;50.006;7.490;2022-09-09T05:59:14;3.90;;;1.93;;
9150;SDS011;4610;50.006;7.490;2022-09-09T06:01:41;7.13;;;1.80;;
9150;SDS011;4610;50.006;7.490;2022-09-09T06:04:08;3.73;;;1.63;;
9150;SDS011;4610;50.006;7.490;2022-09-09T06:06:35;6.43;;;1.30;;
9150;SDS011;4610;50.006;7.490;2022-09-09T06:09:06;4.63;;;1.47;;
9150;SDS011;4610;50.006;7.490;2022-09-09T06:11:35;4.03;;;1.57;;
9150;SDS011;4610;50.006;7.490;2022-09-09T06:14:03;4.80;;;1.60;;
9150;SDS011;4610;50.006;7.490;2022-09-09T06:16:30;5.70;;;1.50;;
9150;SDS011;4610;50.006;7.490;2022-09-09T06:18:58;5.17;;;1.70;;
9150;SDS011;4610;50.006;7.490;2022-09-09T06:21:26;4.50;;;1.50;;
9150;SDS011;4610;50.006;7.490;2022-09-09T06:23:55;5.17;;;1.67;;
9150;SDS011;4610;50.006;7.490;2022-09-09T06:26:24;3.63;;;1.23;;
9150;SDS011;4610;50.006;7.490;2022-09-09T06:28:52;5.07;;;1.30;;
9150;SDS011;4610;50.006;7.490;2022-09-09T06:31:20;2.77;;;1.43;;
9150;SDS011;4610;50.006;7.490;2022-09-09T06:33:49;3.93;;;1.60;;
9150;SDS011;4610;50.006;7.490;2022-09-09T06:36:17;6.83;;;1.20;;
9150;SDS011;4610;50.006;7.490;2022-09-09T06:38:45;2.20;;;1.20;;
9150;SDS011;4610;50.006;7.490;2022-09-09T06:41:13;4.00;;;1.43;;
9150;SDS011;4610;50.006;7.490;2022-09-09T06:43:43;3.43;;;1.50;;
9150;SDS011;4610;50.006;7.490;2022-09-09T06:46:10;4.57;;;1.10;;
9150;SDS011;4610;50.006;7.490;2022-09-09T06:48:39;3.90;;;1.30;;
9150;SDS011;4610;50.006;7.490;2022-09-09T06:51:07;5.00;;;1.30;;
9150;SDS011;4610;50.006;7.490;2022-09-09T06:53:36;3.53;;;1.53;;
9150;SDS011;4610;50.006;7.490;2022-09-09T06:56:17;7.57;;;1.43;;
9150;SDS011;4610;50.006;7.490;2022-09-09T06:58:47;3.37;;;1.47;;
9150;SDS011;4610;50.006;7.490;2022-09-09T07:01:14;4.40;;;1.50;;
9150;SDS011;4610;50.006;7.490;2022-09-09T07:03:42;3.90;;;1.10;;
9150;SDS011;4610;50.006;7.490;2022-09-09T07:06:13;9.13;;;1.33;;
9150;SDS011;4610;50.006;7.490;2022-09-09T07:08:42;3.37;;;1.13;;
9150;SDS011;4610;50.006;7.490;2022-09-09T07:11:09;4.57;;;1.27;;
9150;SDS011;4610;50.006;7.490;2022-09-09T07:13:37;3.77;;;1.40;;
9150;SDS011;4610;50.006;7.490;2022-09-09T07:16:05;3.63;;;1.30;;
9150;SDS011;4610;50.006;7.490;2022-09-09T07:18:33;4.70;;;1.20;;
9150;SDS011;4610;50.006;7.490;2022-09-09T07:21:00;2.60;;;1.30;;
9150;SDS011;4610;50.006;7.490;2022-09-09T07:23:27;2.77;;;1.30;;
9150;SDS011;4610;50.006;7.490;2022-09-09T07:25:55;4.33;;;1.40;;
9150;SDS011;4610;50.006;7.490;2022-09-09T07:28:22;3.67;;;1.40;;
9150;SDS011;4610;50.006;7.490;2022-09-09T07:30:53;2.20;;;1.03;;
9150;SDS011;4610;50.006;7.490;2022-09-09T07:33:22;6.03;;;1.33;;
9150;SDS011;4610;50.006;7.490;2022-09-09T07:35:49;3.37;;;1.53;;
9150;SDS011;4610;50.006;7.490;2022-09-09T07:38:16;5.53;;;1.70;;
9150;SDS011;4610;50.006;7.490;2022-09-09T07:40:43;3.97;;;1.53;;
9150;SDS011;4610;50.006;7.490;2022-09-09T07:43:10;8.70;;;1.73;;
9150;SDS011;4610;50.006;7.490;2022-09-09T07:45:37;6.33;;;1.57;;
9150;SDS011;4610;50.006;7.490;2022-09-09T07:48:05;7.00;;;1.70;;
9150;SDS011;4610;50.006;7.490;2022-09-09T07:50:33;8.50;;;1.50;;
9150;SDS011;4610;50.006;7.490;2022-09-09T07:53:00;6.07;;;1.40;;
9150;SDS011;4610;50.006;7.490;2022-09-09T07:55:27;4.37;;;1.47;;
9150;SDS011;4610;50.006;7.490;2022-09-09T07:57:55;3.87;;;1.40;;
9150;SDS011;4610;50.006;7.490;2022-09-09T08:00:22;4.27;;;1.30;;
9150;SDS011;4610;50.006;7.490;2022-09-09T08:02:48;7.37;;;1.47;;
9150;SDS011;4610;50.006;7.490;2022-09-09T08:05:15;9.53;;;1.70;;
9150;SDS011;4610;50.006;7.490;2022-09-09T08:07:44;3.73;;;1.57;;
9150;SDS011;4610;50.006;7.490;2022-09-09T08:10:11;5.37;;;1.50;;
9150;SDS011;4610;50.006;7.490;2022-09-09T08:12:39;4.80;;;1.60;;
9150;SDS011;4610;50.006;7.490;2022-09-09T08:15:06;3.33;;;1.57;;
9150;SDS011;4610;50.006;7.490;2022-09-09T08:17:33;2.93;;;1.10;;
9150;SDS011;4610;50.006;7.490;2022-09-09T08:20:00;8.47;;;1.17;;
9150;SDS011;4610;50.006;7.490;2022-09-09T08:22:30;4.80;;;1.70;;
9150;SDS011;4610;50.006;7.490;2022-09-09T08:24:58;3.80;;;1.37;;
9150;SDS011;4610;50.006;7.490;2022-09-09T08:27:25;2.03;;;1.30;;
9150;SDS011;4610;50.006;7.490;2022-09-09T08:29:52;2.37;;;1.10;;
9150;SDS011;4610;50.006;7.490;2022-09-09T08:32:18;6.47;;;1.80;;
9150;SDS011;4610;50.006;7.490;2022-09-09T08:34:45;6.73;;;1.47;;
9150;SDS011;4610;50.006;7.490;2022-09-09T08:37:12;7.60;;;1.60;;
9150;SDS011;4610;50.006;7.490;2022-09-09T08:39:39;2.93;;;1.20;;
9150;SDS011;4610;50.006;7.490;2022-09-09T08:42:16;5.27;;;1.23;;
9150;SDS011;4610;50.006;7.490;2022-09-09T08:44:54;4.37;;;1.50;;
9150;SDS011;4610;50.006;7.490;2022-09-09T08:47:39;3.70;;;1.10;;
9150;SDS011;4610;50.006;7.490;2022-09-09T08:50:17;6.47;;;1.27;;
9150;SDS011;4610;50.006;7.490;2022-09-09T08:52:51;4.93;;;1.07;;
9150;SDS011;4610;50.006;7.490;2022-09-09T08:55:24;4.17;;;1.23;;
9150;SDS011;4610;50.006;7.490;2022-09-09T08:57:57;7.00;;;1.50;;
9150;SDS011;4610;50.006;7.490;2022-09-09T09:00:37;4.27;;;1.20;;
9150;SDS011;4610;50.006;7.490;2022-09-09T09:03:14;3.50;;;1.10;;
9150;SDS011;4610;50.006;7.490;2022-09-09T09:05:50;2.60;;;1.33;;
9150;SDS011;4610;50.006;7.490;2022-09-09T09:08:25;2.57;;;1.03;;
9150;SDS011;4610;50.006;7.490;2022-09-09T09:10:57;4.13;;;1.30;;
9150;SDS011;4610;50.006;7.490;2022-09-09T09:13:33;4.77;;;1.33;;
9150;SDS011;4610;50.006;7.490;2022-09-09T09:16:06;3.97;;;0.97;;
9150;SDS011;4610;50.006;7.490;2022-09-09T09:18:40;7.07;;;1.80;;
9150;SDS011;4610;50.006;7.490;2022-09-09T09:21:08;5.30;;;1.60;;
9150;SDS011;4610;50.006;7.490;2022-09-09T09:23:41;2.33;;;1.13;;
9150;SDS011;4610;50.006;7.490;2022-09-09T09:26:11;3.73;;;1.40;;
9150;SDS011;4610;50.006;7.490;2022-09-09T09:28:39;6.47;;;1.60;;
9150;SDS011;4610;50.006;7.490;2022-09-09T09:31:08;3.60;;;1.20;;
9150;SDS011;4610;50.006;7.490;2022-09-09T09:33:38;2.97;;;1.00;;
9150;SDS011;4610;50.006;7.490;2022-09-09T09:36:12;4.87;;;1.30;;
9150;SDS011;4610;50.006;7.490;2022-09-09T09:38:51;4.13;;;1.33;;
9150;SDS011;4610;50.006;7.490;2022-09-09T09:41:28;3.87;;;1.23;;
9150;SDS011;4610;50.006;7.490;2022-09-09T09:43:57;2.23;;;1.20;;
9150;SDS011;4610;50.006;7.490;2022-09-09T09:46:26;3.90;;;1.10;;
9150;SDS011;4610;50.006;7.490;2022-09-09T09:48:56;5.17;;;1.20;;
9150;SDS011;4610;50.006;7.490;2022-09-09T09:51:25;2.77;;;1.27;;
9150;SDS011;4610;50.006;7.490;2022-09-09T09:53:54;3.53;;;1.33;;
9150;SDS011;4610;50.006;7.490;2022-09-09T09:56:34;2.80;;;1.20;;
9150;SDS011;4610;50.006;7.490;2022-09-09T09:59:03;2.87;;;1.20;;
9150;SDS011;4610;50.006;7.490;2022-09-09T10:01:30;6.10;;;1.10;;
9150;SDS011;4610;50.006;7.490;2022-09-09T10:03:59;1.90;;;0.80;;
9150;SDS011;4610;50.006;7.490;2022-09-09T10:06:31;2.33;;;0.97;;
9150;SDS011;4610;50.006;7.490;2022-09-09T10:08:59;3.07;;;1.03;;
9150;SDS011;4610;50.006;7.490;2022-09-09T10:11:39;6.90;;;1.17;;
9150;SDS011;4610;50.006;7.490;2022-09-09T10:14:14;4.70;;;1.43;;
9150;SDS011;4610;50.006;7.490;2022-09-09T10:16:50;5.73;;;1.83;;
9150;SDS011;4610;50.006;7.490;2022-09-09T10:19:28;3.20;;;1.13;;
9150;SDS011;4610;50.006;7.490;2022-09-09T10:22:01;3.43;;;1.27;;
9150;SDS011;4610;50.006;7.490;2022-09-09T10:27:32;3.60;;;1.20;;
9150;SDS011;4610;50.006;7.490;2022-09-09T10:30:11;4.03;;;1.10;;
9150;SDS011;4610;50.006;7.490;2022-09-09T10:32:46;6.03;;;1.30;;
9150;SDS011;4610;50.006;7.490;2022-09-09T10:35:23;4.47;;;1.10;;
9150;SDS011;4610;50.006;7.490;2022-09-09T10:38:05;3.90;;;1.60;;
9150;SDS011;4610;50.006;7.490;2022-09-09T10:40:42;4.03;;;1.33;;
9150;SDS011;4610;50.006;7.490;2022-09-09T10:43:20;3.60;;;1.23;;
9150;SDS011;4610;50.006;7.490;2022-09-09T10:45:59;2.80;;;1.23;;
9150;SDS011;4610;50.006;7.490;2022-09-09T10:48:38;3.73;;;1.00;;
9150;SDS011;4610;50.006;7.490;2022-09-09T10:51:28;6.93;;;1.40;;
9150;SDS011;4610;50.006;7.490;2022-09-09T10:56:51;3.27;;;1.30;;
9150;SDS011;4610;50.006;7.490;2022-09-09T10:59:22;6.97;;;1.30;;
9150;SDS011;4610;50.006;7.490;2022-09-09T11:01:53;2.67;;;1.03;;
9150;SDS011;4610;50.006;7.490;2022-09-09T11:04:25;3.47;;;1.10;;
9150;SDS011;4610;50.006;7.490;2022-09-09T11:06:58;4.70;;;1.30;;
9150;SDS011;4610;50.006;7.490;2022-09-09T11:09:32;4.37;;;1.40;;
9150;SDS011;4610;50.006;7.490;2022-09-09T11:12:04;6.03;;;1.50;;
9150;SDS011;4610;50.006;7.490;2022-09-09T11:14:36;2.73;;;1.00;;
9150;SDS011;4610;50.006;7.490;2022-09-09T11:17:10;4.23;;;1.50;;
9150;SDS011;4610;50.006;7.490;2022-09-09T11:19:40;6.67;;;2.43;;
9150;SDS011;4610;50.006;7.490;2022-09-09T11:22:13;4.70;;;2.07;;
9150;SDS011;4610;50.006;7.490;2022-09-09T11:24:47;7.67;;;2.80;;
9150;SDS011;4610;50.006;7.490;2022-09-09T11:27:18;6.27;;;2.37;;
9150;SDS011;4610;50.006;7.490;2022-09-09T11:30:01;7.33;;;2.50;;
9150;SDS011;4610;50.006;7.490;2022-09-09T11:32:50;6.37;;;2.40;;
9150;SDS011;4610;50.006;7.490;2022-09-09T11:35:39;5.77;;;2.60;;
9150;SDS011;4610;50.006;7.490;2022-09-09T11:38:18;6.43;;;2.57;;
9150;SDS011;4610;50.006;7.490;2022-09-09T11:40:47;5.20;;;2.63;;
9150;SDS011;4610;50.006;7.490;2022-09-09T11:43:25;4.03;;;2.00;;
9150;SDS011;4610;50.006;7.490;2022-09-09T11:45:57;6.17;;;2.50;;
9150;SDS011;4610;50.006;7.490;2022-09-09T11:48:30;5.33;;;2.37;;
9150;SDS011;4610;50.006;7.490;2022-09-09T11:51:01;6.30;;;2.23;;
9150;SDS011;4610;50.006;7.490;2022-09-09T11:53:32;5.50;;;2.30;;
9150;SDS011;4610;50.006;7.490;2022-09-09T11:56:04;1.60;;;0.80;;
9150;SDS011;4610;50.006;7.490;2022-09-09T11:58:36;3.10;;;1.10;;
9150;SDS011;4610;50.006;7.490;2022-09-09T12:01:15;5.07;;;2.03;;
9150;SDS011;4610;50.006;7.490;2022-09-09T12:03:59;7.80;;;2.10;;
9150;SDS011;4610;50.006;7.490;2022-09-09T12:06:33;4.07;;;1.97;;
9150;SDS011;4610;50.006;7.490;2022-09-09T12:09:12;6.17;;;2.27;;
9150;SDS011;4610;50.006;7.490;2022-09-09T12:11:44;5.10;;;2.20;;
9150;SDS011;4610;50.006;7.490;2022-09-09T12:14:18;5.23;;;2.23;;
9150;SDS011;4610;50.006;7.490;2022-09-09T12:16:47;6.53;;;2.20;;
9150;SDS011;4610;50.006;7.490;2022-09-09T12:19:16;5.43;;;2.00;;
9150;SDS011;4610;50.006;7.490;2022-09-09T12:21:48;7.43;;;2.10;;
9150;SDS011;4610;50.006;7.490;2022-09-09T12:24:21;4.13;;;2.10;;
9150;SDS011;4610;50.006;7.490;2022-09-09T12:26:54;6.00;;;1.93;;
9150;SDS011;4610;50.006;7.490;2022-09-09T12:29:30;4.30;;;2.03;;
9150;SDS011;4610;50.006;7.490;2022-09-09T12:32:04;3.70;;;1.90;;
9150;SDS011;4610;50.006;7.490;2022-09-09T12:34:38;5.63;;;1.93;;
9150;SDS011;4610;50.006;7.490;2022-09-09T12:37:08;5.63;;;2.60;;
9150;SDS011;4610;50.006;7.490;2022-09-09T12:39:43;5.93;;;2.07;;
9150;SDS011;4610;50.006;7.490;2022-09-09T12:42:17;4.33;;;1.77;;
9150;SDS011;4610;50.006;7.490;2022-09-09T12:44:55;4.20;;;2.33;;
9150;SDS011;4610;50.006;7.490;2022-09-09T12:47:24;5.53;;;2.03;;
9150;SDS011;4610;50.006;7.490;2022-09-09T12:49:56;7.47;;;2.23;;
9150;SDS011;4610;50.006;7.490;2022-09-09T12:52:24;5.77;;;2.30;;
9150;SDS011;4610;50.006;7.490;2022-09-09T12:54:55;9.03;;;2.60;;
9150;SDS011;4610;50.006;7.490;2022-09-09T12:57:22;5.10;;;2.20;;
9150;SDS011;4610;50.006;7.490;2022-09-09T12:59:51;7.73;;;2.67;;
9150;SDS011;4610;50.006;7.490;2022-09-09T13:02:19;13.77;;;3.87;;
9150;SDS011;4610;50.006;7.490;2022-09-09T13:04:47;11.20;;;3.63;;
9150;SDS011;4610;50.006;7.490;2022-09-09T13:07:17;6.63;;;2.30;;
9150;SDS011;4610;50.006;7.490;2022-09-09T13:09:45;4.50;;;2.33;;
9150;SDS011;4610;50.006;7.490;2022-09-09T13:12:13;4.53;;;1.87;;
9150;SDS011;4610;50.006;7.490;2022-09-09T13:14:43;5.97;;;2.50;;
9150;SDS011;4610;50.006;7.490;2022-09-09T13:17:17;6.97;;;2.63;;
9150;SDS011;4610;50.006;7.490;2022-09-09T13:19:46;3.90;;;1.77;;
9150;SDS011;4610;50.006;7.490;2022-09-09T13:22:20;6.30;;;2.60;;
9150;SDS011;4610;50.006;7.490;2022-09-09T13:24:58;4.73;;;2.60;;
9150;SDS011;4610;50.006;7.490;2022-09-09T13:27:31;5.30;;;2.67;;
9150;SDS011;4610;50.006;7.490;2022-09-09T13:29:59;6.53;;;2.13;;
9150;SDS011;4610;50.006;7.490;2022-09-09T13:32:27;7.53;;;2.50;;
9150;SDS011;4610;50.006;7.490;2022-09-09T13:34:54;7.33;;;2.63;;
9150;SDS011;4610;50.006;7.490;2022-09-09T13:37:26;8.90;;;2.97;;
9150;SDS011;4610;50.006;7.490;2022-09-09T13:39:58;10.60;;;2.93;;
9150;SDS011;4610;50.006;7.490;2022-09-09T13:42:25;6.20;;;3.00;;
9150;SDS011;4610;50.006;7.490;2022-09-09T13:44:54;4.77;;;2.03;;
9150;SDS011;4610;50.006;7.490;2022-09-09T13:47:26;4.53;;;2.23;;
9150;SDS011;4610;50.006;7.490;2022-09-09T13:49:56;6.53;;;2.63;;
9150;SDS011;4610;50.006;7.490;2022-09-09T13:52:24;5.87;;;2.17;;
9150;SDS011;4610;50.006;7.490;2022-09-09T13:54:55;4.90;;;2.37;;
9150;SDS011;4610;50.006;7.490;2022-09-09T13:57:23;5.67;;;2.33;;
9150;SDS011;4610;50.006;7.490;2022-09-09T13:59:51;4.90;;;2.40;;
9150;SDS011;4610;50.006;7.490;2022-09-09T14:02:21;9.33;;;3.93;;
9150;SDS011;4610;50.006;7.490;2022-09-09T14:04:48;7.40;;;3.70;;
9150;SDS011;4610;50.006;7.490;2022-09-09T14:07:16;13.27;;;4.50;;
9150;SDS011;4610;50.006;7.490;2022-09-09T14:09:45;8.93;;;4.00;;
9150;SDS011;4610;50.006;7.490;2022-09-09T14:12:15;7.77;;;3.47;;
9150;SDS011;4610;50.006;7.490;2022-09-09T14:14:42;8.37;;;3.60;;
9150;SDS011;4610;50.006;7.490;2022-09-09T14:17:09;8.03;;;2.97;;
9150;SDS011;4610;50.006;7.490;2022-09-09T14:19:36;7.80;;;3.30;;
9150;SDS011;4610;50.006;7.490;2022-09-09T14:22:03;9.00;;;3.60;;
9150;SDS011;4610;50.006;7.490;2022-09-09T14:24:30;7.03;;;3.40;;
9150;SDS011;4610;50.006;7.490;2022-09-09T14:26:58;9.23;;;3.47;;
9150;SDS011;4610;50.006;7.490;2022-09-09T14:29:24;8.80;;;4.03;;
9150;SDS011;4610;50.006;7.490;2022-09-09T14:31:51;8.93;;;3.97;;
9150;SDS011;4610;50.006;7.490;2022-09-09T14:34:18;9.70;;;3.90;;
9150;SDS011;4610;50.006;7.490;2022-09-09T14:36:45;8.23;;;4.07;;
9150;SDS011;4610;50.006;7.490;2022-09-09T14:39:11;7.30;;;3.63;;
9150;SDS011;4610;50.006;7.490;2022-09-09T14:41:38;8.00;;;3.87;;
9150;SDS011;4610;50.006;7.490;2022-09-09T14:44:06;7.63;;;4.00;;
9150;SDS011;4610;50.006;7.490;2022-09-09T14:46:33;8.70;;;3.50;;
9150;SDS011;4610;50.006;7.490;2022-09-09T14:49:00;7.13;;;3.43;;
9150;SDS011;4610;50.006;7.490;2022-09-09T14:51:27;6.03;;;3.00;;
9150;SDS011;4610;50.006;7.490;2022-09-09T14:53:54;6.77;;;3.20;;
9150;SDS011;4610;50.006;7.490;2022-09-09T14:56:23;9.10;;;3.83;;
9150;SDS011;4610;50.006;7.490;2022-09-09T14:58:52;8.70;;;3.90;;
9150;SDS011;4610;50.006;7.490;2022-09-09T15:01:21;8.10;;;3.90;;
9150;SDS011;4610;50.006;7.490;2022-09-09T15:03:49;30.63;;;5.03;;
9150;SDS011;4610;50.006;7.490;2022-09-09T15:06:17;20.23;;;4.83;;
9150;SDS011;4610;50.006;7.490;2022-09-09T15:08:45;16.03;;;4.43;;
9150;SDS011;4610;50.006;7.490;2022-09-09T15:11:13;12.43;;;4.47;;
9150;SDS011;4610;50.006;7.490;2022-09-09T15:13:41;7.10;;;3.03;;
9150;SDS011;4610;50.006;7.490;2022-09-09T15:16:09;16.93;;;5.60;;
9150;SDS011;4610;50.006;7.490;2022-09-09T15:18:38;13.67;;;4.73;;
9150;SDS011;4610;50.006;7.490;2022-09-09T15:21:08;13.87;;;5.63;;
9150;SDS011;4610;50.006;7.490;2022-09-09T15:23:35;9.97;;;4.60;;
9150;SDS011;4610;50.006;7.490;2022-09-09T15:26:02;10.63;;;4.63;;
9150;SDS011;4610;50.006;7.490;2022-09-09T15:28:30;11.03;;;4.73;;
9150;SDS011;4610;50.006;7.490;2022-09-09T15:30:58;14.27;;;4.83;;
9150;SDS011;4610;50.006;7.490;2022-09-09T15:33:31;19.87;;;6.87;;
9150;SDS011;4610;50.006;7.490;2022-09-09T15:35:59;15.97;;;6.30;;
9150;SDS011;4610;50.006;7.490;2022-09-09T15:38:26;16.87;;;6.63;;
9150;SDS011;4610;50.006;7.490;2022-09-09T15:40:53;14.60;;;5.17;;